createdAt,value
2018-12-05T00:00:21.717Z,10.23
2018-12-05T00:02:50.772Z,10.50
2018-12-05T00:05:19.855Z,11.20
2018-12-05T00:07:48.973Z,11.03
2018-12-05T00:10:18.060Z,12.07
2018-12-05T00:12:47.213Z,12.30
2018-12-05T00:15:16.325Z,12.70
2018-12-05T00:17:45.396Z,11.87
2018-12-05T00:20:14.518Z,11.47
2018-12-05T00:22:43.714Z,10.70
2018-12-05T00:25:13.853Z,9.80
2018-12-05T00:27:43.598Z,9.53
2018-12-05T00:30:12.753Z,9.90
2018-12-05T00:32:41.832Z,9.80
2018-12-05T00:35:11.072Z,9.07
2018-12-05T00:37:40.174Z,9.83
2018-12-05T00:40:09.283Z,11.20
2018-12-05T00:42:38.354Z,9.97
2018-12-05T00:45:07.626Z,11.10
2018-12-05T00:47:37.153Z,10.40
2018-12-05T00:50:06.392Z,10.20
2018-12-05T00:52:35.515Z,9.07
2018-12-05T00:55:05.738Z,10.40
2018-12-05T00:57:34.818Z,11.67
2018-12-05T01:00:04.936Z,10.83
2018-12-05T01:02:34.646Z,11.13
2018-12-05T01:05:04.092Z,11.60
2018-12-05T01:07:33.238Z,11.13
2018-12-05T01:10:02.337Z,11.27
2018-12-05T01:12:31.420Z,11.80
2018-12-05T01:15:00.550Z,11.70
2018-12-05T01:17:29.650Z,12.23
2018-12-05T01:19:58.768Z,12.57
2018-12-05T01:22:27.907Z,11.90
2018-12-05T01:24:56.980Z,12.70
2018-12-05T01:27:26.066Z,11.30
2018-12-05T01:29:55.186Z,13.57
2018-12-05T01:32:24.252Z,12.70
2018-12-05T01:34:53.325Z,12.30
2018-12-05T01:37:22.668Z,12.03
2018-12-05T01:39:51.722Z,11.37
2018-12-05T01:42:20.848Z,12.43
2018-12-05T01:44:55.382Z,12.67
2018-12-05T01:47:24.743Z,12.00
2018-12-05T01:49:53.847Z,12.60
2018-12-05T01:52:23.055Z,13.03
2018-12-05T01:54:52.173Z,13.20
2018-12-05T01:57:21.235Z,13.40
2018-12-05T01:59:50.897Z,13.47
2018-12-05T02:02:20.007Z,13.10
2018-12-05T02:04:49.083Z,13.20
2018-12-05T02:07:18.769Z,13.13
2018-12-05T02:09:48.481Z,12.43
2018-12-05T02:12:17.602Z,12.40
2018-12-05T02:14:46.731Z,12.10
2018-12-05T02:17:15.834Z,13.30
2018-12-05T02:19:45.015Z,13.60
2018-12-05T02:22:14.085Z,14.17
2018-12-05T02:24:43.170Z,15.23
2018-12-05T02:27:12.335Z,14.30
2018-12-05T02:29:47.533Z,13.80
2018-12-05T02:32:16.654Z,13.50
2018-12-05T02:34:45.731Z,13.20
2018-12-05T02:37:14.864Z,14.60
2018-12-05T02:39:45.240Z,14.40
2018-12-05T02:42:14.296Z,14.70
2018-12-05T02:44:43.562Z,15.20
2018-12-05T02:47:13.376Z,15.03
2018-12-05T02:49:42.940Z,14.63
2018-12-05T02:52:12.031Z,16.07
2018-12-05T02:54:41.159Z,14.27
2018-12-05T02:57:10.231Z,14.87
2018-12-05T02:59:39.303Z,14.70
2018-12-05T03:02:08.422Z,16.23
2018-12-05T03:04:37.511Z,16.07
2018-12-05T03:07:06.574Z,16.17
2018-12-05T03:09:35.680Z,15.37
2018-12-05T03:12:05.003Z,14.40
2018-12-05T03:14:34.149Z,16.10
2018-12-05T03:17:03.390Z,15.50
2018-12-05T03:19:32.473Z,15.03
2018-12-05T03:22:01.648Z,15.67
2018-12-05T03:24:30.782Z,15.30
2018-12-05T03:26:59.961Z,15.50
2018-12-05T03:29:29.748Z,15.30
2018-12-05T03:31:58.839Z,15.20
2018-12-05T03:34:27.910Z,14.70
2018-12-05T03:36:56.988Z,15.67
2018-12-05T03:39:26.084Z,14.70
2018-12-05T03:41:55.568Z,14.37
2018-12-05T03:44:24.648Z,14.87
2018-12-05T03:46:53.918Z,16.10
2018-12-05T03:49:23.004Z,16.37
2018-12-05T03:51:52.103Z,16.47
2018-12-05T03:54:21.363Z,16.00
2018-12-05T03:56:50.448Z,17.00
2018-12-05T03:59:19.537Z,17.03
2018-12-05T04:01:48.675Z,16.40
2018-12-05T04:04:18.117Z,16.77
2018-12-05T04:06:47.193Z,16.23
2018-12-05T04:09:16.306Z,16.50
2018-12-05T04:11:45.360Z,16.90
2018-12-05T04:14:14.462Z,16.23
2018-12-05T04:16:43.629Z,15.80
2018-12-05T04:19:12.710Z,16.43
2018-12-05T04:21:41.809Z,17.43
2018-12-05T04:24:10.897Z,15.90
2018-12-05T04:26:39.998Z,15.67
2018-12-05T04:29:09.795Z,16.00
2018-12-05T04:31:38.905Z,16.17
2018-12-05T04:34:08.016Z,18.20
2018-12-05T04:36:37.089Z,16.90
2018-12-05T04:39:09.558Z,18.40
2018-12-05T04:41:38.648Z,17.40
2018-12-05T04:44:08.014Z,17.53
2018-12-05T04:46:37.311Z,17.77
2018-12-05T04:49:06.429Z,18.20
2018-12-05T04:51:35.511Z,18.33
2018-12-05T04:54:04.971Z,18.40
2018-12-05T04:56:34.063Z,17.97
2018-12-05T04:59:03.180Z,18.37
2018-12-05T05:01:32.289Z,18.03
2018-12-05T05:04:01.352Z,18.77
2018-12-05T05:06:30.446Z,19.93
2018-12-05T05:09:00.316Z,19.33
2018-12-05T05:11:29.405Z,18.63
2018-12-05T05:13:58.475Z,18.17
2018-12-05T05:16:27.609Z,17.43
2018-12-05T05:18:56.707Z,18.90
2018-12-05T05:21:25.839Z,19.50
2018-12-05T05:23:54.967Z,19.27
2018-12-05T05:26:24.093Z,20.07
2018-12-05T05:28:53.182Z,17.83
2018-12-05T05:31:23.778Z,19.20
2018-12-05T05:33:53.025Z,18.70
2018-12-05T05:36:22.201Z,17.10
2018-12-05T05:38:51.887Z,18.30
2018-12-05T05:41:20.937Z,17.87
2018-12-05T05:43:50.079Z,17.23
2018-12-05T05:46:19.617Z,17.03
2018-12-05T05:48:48.721Z,17.77
2018-12-05T05:51:18.321Z,18.40
2018-12-05T05:53:47.410Z,17.70
2018-12-05T05:56:16.485Z,18.07
2018-12-05T05:58:45.587Z,16.03
2018-12-05T06:01:14.703Z,17.53
2018-12-05T06:03:43.757Z,18.10
2018-12-05T06:06:12.917Z,18.53
2018-12-05T06:08:42.057Z,18.13
2018-12-05T06:11:11.135Z,18.40
2018-12-05T06:13:40.800Z,18.10
2018-12-05T06:16:09.901Z,19.97
2018-12-05T06:18:39.104Z,19.23
2018-12-05T06:21:08.283Z,19.63
2018-12-05T06:23:37.370Z,19.17
2018-12-05T06:26:06.446Z,19.17
2018-12-05T06:28:35.606Z,21.00
2018-12-05T06:31:04.715Z,19.80
2018-12-05T06:33:33.794Z,19.23
2018-12-05T06:36:03.040Z,20.80
2018-12-05T06:38:32.173Z,20.00
2018-12-05T06:41:01.253Z,18.77
2018-12-05T06:43:30.363Z,19.37
2018-12-05T06:45:59.427Z,20.47
2018-12-05T06:48:28.922Z,20.10
2018-12-05T06:50:58.236Z,20.60
2018-12-05T06:53:27.299Z,19.47
2018-12-05T06:55:56.395Z,20.10
2018-12-05T06:58:25.569Z,20.30
2018-12-05T07:00:54.677Z,19.60
2018-12-05T07:03:23.765Z,19.67
2018-12-05T07:05:52.922Z,21.43
2018-12-05T07:08:22.092Z,21.73
2018-12-05T07:10:51.168Z,21.30
2018-12-05T07:13:20.443Z,21.87
2018-12-05T07:15:49.575Z,20.30
2018-12-05T07:18:18.985Z,21.23
2018-12-05T07:20:48.103Z,20.70
2018-12-05T07:23:17.271Z,21.00
2018-12-05T07:25:46.355Z,20.73
2018-12-05T07:28:15.453Z,20.33
2018-12-05T07:30:44.531Z,21.80
2018-12-05T07:33:13.731Z,21.70
2018-12-05T07:35:42.941Z,21.00
2018-12-05T07:38:19.222Z,20.10
2018-12-05T07:40:43.128Z,20.70
2018-12-05T07:43:12.171Z,21.90
2018-12-05T07:45:41.274Z,20.90
2018-12-05T07:48:10.413Z,20.33
2018-12-05T07:50:40.645Z,21.10
2018-12-05T07:53:09.809Z,21.17
2018-12-05T07:55:38.903Z,19.60
2018-12-05T07:58:08.175Z,20.80
2018-12-05T08:00:37.300Z,21.07
2018-12-05T08:03:06.394Z,21.00
2018-12-05T08:05:35.487Z,21.90
2018-12-05T08:08:04.643Z,19.83
2018-12-05T08:10:33.684Z,19.80
2018-12-05T08:13:02.778Z,20.70
2018-12-05T08:15:31.947Z,18.43
2018-12-05T08:18:01.031Z,19.00
2018-12-05T08:20:30.130Z,18.93
2018-12-05T08:22:59.247Z,20.63
2018-12-05T08:25:28.336Z,20.53
2018-12-05T08:27:57.426Z,19.63
2018-12-05T08:30:26.529Z,21.43
2018-12-05T08:32:55.614Z,19.37
2018-12-05T08:35:24.695Z,21.60
2018-12-05T08:37:54.102Z,21.97
2018-12-05T08:40:23.204Z,20.87
2018-12-05T08:42:52.307Z,20.80
2018-12-05T08:45:21.476Z,21.63
2018-12-05T08:47:50.540Z,20.43
2018-12-05T08:50:19.612Z,21.80
2018-12-05T08:52:48.901Z,21.80
2018-12-05T08:55:17.982Z,21.73
2018-12-05T08:57:47.192Z,21.67
2018-12-05T09:00:16.428Z,22.43
2018-12-05T09:02:45.619Z,22.70
2018-12-05T09:05:14.722Z,22.03
2018-12-05T09:07:44.392Z,22.23
2018-12-05T09:10:13.612Z,22.40
2018-12-05T09:12:42.684Z,21.57
2018-12-05T09:15:11.803Z,21.60
2018-12-05T09:17:40.871Z,21.70
2018-12-05T09:20:10.081Z,20.47
2018-12-05T09:22:41.499Z,22.23
2018-12-05T09:25:10.412Z,20.33
2018-12-05T09:27:39.614Z,22.10
2018-12-05T09:30:08.938Z,21.70
2018-12-05T09:32:38.038Z,22.27
2018-12-05T09:35:07.168Z,21.20
2018-12-05T09:37:36.248Z,22.13
2018-12-05T09:40:05.680Z,21.60
2018-12-05T09:42:34.800Z,20.47
2018-12-05T09:45:04.278Z,22.60
2018-12-05T09:47:33.366Z,20.13
2018-12-05T09:50:02.476Z,21.53
2018-12-05T09:52:31.586Z,21.23
2018-12-05T09:55:01.022Z,21.97
2018-12-05T09:57:30.135Z,22.23
2018-12-05T09:59:59.326Z,21.53
2018-12-05T10:02:28.398Z,21.90
2018-12-05T10:04:57.536Z,21.47
2018-12-05T10:07:26.612Z,20.40
2018-12-05T10:09:56.380Z,21.57
2018-12-05T10:12:25.506Z,20.10
2018-12-05T10:14:54.593Z,19.33
2018-12-05T10:17:24.206Z,20.40
2018-12-05T10:19:53.344Z,19.80
2018-12-05T10:22:22.408Z,19.77
2018-12-05T10:24:52.222Z,18.87
2018-12-05T10:27:21.344Z,20.70
2018-12-05T10:29:50.573Z,20.87
2018-12-05T10:32:19.672Z,21.10
2018-12-05T10:34:48.855Z,21.13
2018-12-05T10:37:17.991Z,21.43
2018-12-05T10:39:47.063Z,21.03
2018-12-05T10:42:16.187Z,20.90
2018-12-05T10:44:45.312Z,21.73
2018-12-05T10:47:14.416Z,19.70
2018-12-05T10:52:31.213Z,21.03
2018-12-05T10:55:00.304Z,18.97
2018-12-05T10:57:29.802Z,19.73
2018-12-05T10:59:59.097Z,19.93
2018-12-05T11:02:33.311Z,22.00
2018-12-05T11:05:07.703Z,19.50
2018-12-05T11:07:42.147Z,19.60
2018-12-05T11:10:16.615Z,20.40
2018-12-05T11:12:50.963Z,18.20
2018-12-05T11:15:25.461Z,17.93
2018-12-05T11:17:59.777Z,19.10
2018-12-05T11:20:34.285Z,20.07
2018-12-05T11:23:08.580Z,19.57
2018-12-05T11:25:37.683Z,18.80
2018-12-05T11:28:06.765Z,18.80
2018-12-05T11:30:36.269Z,20.07
2018-12-05T11:33:05.397Z,18.93
2018-12-05T11:35:36.171Z,19.63
2018-12-05T11:38:05.647Z,18.30
2018-12-05T11:40:34.751Z,18.60
2018-12-05T11:43:03.966Z,19.10
2018-12-05T11:45:33.089Z,18.80
2018-12-05T11:48:02.420Z,18.57
2018-12-05T11:50:31.493Z,16.73
2018-12-05T11:53:00.583Z,17.80
2018-12-05T11:55:29.672Z,18.13
2018-12-05T11:57:59.080Z,17.17
2018-12-05T12:00:28.306Z,18.53
2018-12-05T12:02:57.575Z,17.37
2018-12-05T12:05:26.659Z,19.13
2018-12-05T12:07:55.917Z,18.97
2018-12-05T12:10:30.143Z,17.77
2018-12-05T12:13:07.034Z,18.30
2018-12-05T12:15:36.630Z,17.80
2018-12-05T12:18:06.141Z,18.20
2018-12-05T12:20:35.213Z,19.40
2018-12-05T12:23:04.480Z,17.10
2018-12-05T12:25:33.562Z,16.83
2018-12-05T12:28:02.691Z,18.40
2018-12-05T12:30:31.810Z,17.80
2018-12-05T12:33:02.708Z,17.30
2018-12-05T12:35:32.859Z,17.73
2018-12-05T12:38:01.955Z,17.80
2018-12-05T12:40:31.065Z,16.73
2018-12-05T12:43:00.215Z,15.93
2018-12-05T12:45:29.287Z,16.40
2018-12-05T12:47:58.395Z,16.57
2018-12-05T12:50:27.499Z,16.90
2018-12-05T12:52:56.565Z,16.20
2018-12-05T12:55:25.683Z,16.50
2018-12-05T12:57:54.817Z,16.80
2018-12-05T13:00:24.187Z,15.80
2018-12-05T13:02:53.363Z,16.63
2018-12-05T13:05:22.505Z,17.37
2018-12-05T13:07:51.586Z,15.77
2018-12-05T13:10:20.660Z,16.70
2018-12-05T13:12:51.804Z,16.77
2018-12-05T13:15:20.873Z,16.40
2018-12-05T13:17:49.952Z,17.10
2018-12-05T13:20:19.076Z,15.67
2018-12-05T13:22:48.294Z,17.13
2018-12-05T13:25:17.424Z,17.87
2018-12-05T13:27:46.543Z,17.80
2018-12-05T13:30:15.667Z,18.27
2018-12-05T13:32:44.766Z,16.70
2018-12-05T13:35:14.026Z,17.20
2018-12-05T13:37:43.118Z,18.10
2018-12-05T13:40:12.327Z,18.90
2018-12-05T13:42:41.448Z,17.17
2018-12-05T13:45:10.762Z,17.80
2018-12-05T13:47:39.927Z,17.37
2018-12-05T13:50:09.078Z,17.93
2018-12-05T13:52:38.201Z,17.90
2018-12-05T13:55:07.308Z,16.90
2018-12-05T13:57:36.432Z,18.07
2018-12-05T14:00:07.540Z,19.60
2018-12-05T14:02:36.794Z,17.20
2018-12-05T14:05:06.152Z,17.87
2018-12-05T14:07:35.463Z,17.50
2018-12-05T14:10:05.050Z,18.47
2018-12-05T14:12:39.110Z,17.80
2018-12-05T14:15:09.568Z,17.50
2018-12-05T14:17:38.664Z,17.30
2018-12-05T14:20:09.306Z,18.87
2018-12-05T14:22:38.401Z,20.00
2018-12-05T14:25:08.110Z,18.10
2018-12-05T14:27:37.306Z,18.93
2018-12-05T14:30:07.812Z,18.73
2018-12-05T14:32:36.896Z,20.10
2018-12-05T14:35:06.218Z,19.37
2018-12-05T14:37:35.315Z,19.40
2018-12-05T14:40:05.330Z,19.80
2018-12-05T14:42:34.496Z,20.60
2018-12-05T14:45:03.712Z,19.20
2018-12-05T14:47:32.904Z,19.90
2018-12-05T14:50:02.176Z,21.17
2018-12-05T14:52:31.391Z,20.40
2018-12-05T14:55:00.590Z,19.70
2018-12-05T14:57:30.712Z,19.17
2018-12-05T15:00:00.092Z,20.67
2018-12-05T15:02:29.320Z,20.03
2018-12-05T15:04:59.005Z,19.07
2018-12-05T15:07:28.142Z,19.60
2018-12-05T15:09:57.276Z,18.97
2018-12-05T15:12:26.372Z,20.43
2018-12-05T15:14:55.545Z,20.30
2018-12-05T15:17:25.781Z,19.57
2018-12-05T15:19:54.993Z,18.83
2018-12-05T15:22:24.213Z,18.97
2018-12-05T15:24:53.447Z,21.07
2018-12-05T15:27:22.693Z,19.23
2018-12-05T15:29:51.916Z,20.27
2018-12-05T15:32:21.134Z,19.13
2018-12-05T15:34:50.246Z,19.73
2018-12-05T15:37:19.393Z,18.80
2018-12-05T15:39:48.675Z,20.03
2018-12-05T15:42:17.764Z,20.60
2018-12-05T15:44:46.989Z,18.20
2018-12-05T15:47:16.205Z,18.77
2018-12-05T15:49:45.355Z,18.67
2018-12-05T15:52:14.603Z,18.53
2018-12-05T15:54:43.779Z,18.13
2018-12-05T15:57:13.024Z,20.17
2018-12-05T15:59:42.211Z,19.80
2018-12-05T16:02:11.485Z,19.10
2018-12-05T16:04:40.616Z,17.43
2018-12-05T16:07:11.025Z,18.50
2018-12-05T16:09:40.163Z,18.33
2018-12-05T16:12:09.335Z,18.67
2018-12-05T16:14:39.050Z,20.20
2018-12-05T16:17:08.205Z,21.83
2018-12-05T16:19:37.300Z,20.17
2018-12-05T16:22:07.281Z,20.40
2018-12-05T16:24:36.467Z,21.90
2018-12-05T16:27:05.633Z,20.77
2018-12-05T16:29:34.771Z,21.60
2018-12-05T16:32:04.197Z,20.47
2018-12-05T16:34:33.351Z,20.87
2018-12-05T16:37:02.545Z,20.50
2018-12-05T16:39:31.767Z,21.40
2018-12-05T16:42:01.022Z,21.20
2018-12-05T16:44:30.173Z,20.23
2018-12-05T16:46:59.424Z,21.07
2018-12-05T16:49:28.651Z,21.13
2018-12-05T16:51:57.891Z,21.83
2018-12-05T16:54:28.059Z,21.37
2018-12-05T16:56:57.372Z,19.80
2018-12-05T16:59:26.525Z,21.80
2018-12-05T17:01:55.721Z,20.90
2018-12-05T17:04:25.945Z,20.87
2018-12-05T17:06:55.161Z,19.87
2018-12-05T17:09:26.316Z,20.13
2018-12-05T17:11:55.763Z,20.77
2018-12-05T17:14:24.973Z,18.90
2018-12-05T17:16:54.148Z,19.30
2018-12-05T17:19:23.299Z,19.60
2018-12-05T17:21:52.435Z,20.03
2018-12-05T17:24:21.555Z,19.93
2018-12-05T17:26:50.675Z,20.97
2018-12-05T17:29:19.749Z,20.57
2018-12-05T17:31:48.855Z,20.70
2018-12-05T17:34:17.979Z,20.13
2018-12-05T17:36:47.077Z,20.50
2018-12-05T17:39:16.171Z,24.57
2018-12-05T17:41:45.291Z,22.97
2018-12-05T17:44:15.067Z,23.93
2018-12-05T17:46:44.177Z,24.47
2018-12-05T17:49:13.259Z,22.67
2018-12-05T17:51:42.410Z,21.47
2018-12-05T17:54:14.666Z,20.83
2018-12-05T17:56:43.352Z,21.90
2018-12-05T17:59:12.449Z,21.80
2018-12-05T18:01:42.226Z,23.80
2018-12-05T18:04:11.342Z,20.70
2018-12-05T18:06:40.465Z,20.53
2018-12-05T18:09:09.802Z,21.67
2018-12-05T18:11:39.476Z,20.17
2018-12-05T18:14:08.558Z,20.60
2018-12-05T18:16:37.673Z,21.87
2018-12-05T18:19:06.930Z,20.33
2018-12-05T18:21:36.031Z,20.40
2018-12-05T18:24:05.153Z,21.30
2018-12-05T18:26:34.293Z,20.47
2018-12-05T18:29:03.514Z,22.10
2018-12-05T18:31:32.624Z,23.33
2018-12-05T18:34:01.923Z,23.90
2018-12-05T18:36:31.015Z,23.10
2018-12-05T18:39:00.121Z,24.63
2018-12-05T18:41:29.264Z,24.57
2018-12-05T18:43:58.464Z,24.90
2018-12-05T18:46:27.543Z,26.10
2018-12-05T18:48:56.659Z,25.53
2018-12-05T18:51:25.779Z,24.80
2018-12-05T18:53:54.937Z,23.33
2018-12-05T18:56:24.074Z,24.27
2018-12-05T18:58:53.184Z,26.00
2018-12-05T19:01:22.287Z,24.07
2018-12-05T19:03:51.387Z,23.63
2018-12-05T19:06:20.599Z,23.60
2018-12-05T19:08:49.699Z,24.60
2018-12-05T19:11:18.793Z,27.40
2018-12-05T19:13:53.259Z,30.93
2018-12-05T19:16:22.561Z,29.17
2018-12-05T19:18:51.642Z,26.93
2018-12-05T19:21:20.705Z,32.83
2018-12-05T19:23:49.837Z,33.40
2018-12-05T19:26:18.947Z,29.07
2018-12-05T19:28:48.061Z,25.10
2018-12-05T19:31:19.509Z,24.90
2018-12-05T19:33:48.372Z,26.20
2018-12-05T19:36:17.449Z,24.90
2018-12-05T19:38:46.507Z,21.60
2018-12-05T19:41:15.665Z,24.40
2018-12-05T19:43:44.797Z,23.77
2018-12-05T19:46:13.909Z,23.50
2018-12-05T19:48:43.210Z,25.23
2018-12-05T19:51:12.459Z,23.60
2018-12-05T19:53:41.556Z,25.47
2018-12-05T19:56:10.658Z,24.80
2018-12-05T19:58:39.813Z,24.30
2018-12-05T20:01:08.932Z,40.27
2018-12-05T20:03:38.108Z,33.90
2018-12-05T20:06:07.357Z,27.30
2018-12-05T20:08:36.449Z,24.73
2018-12-05T20:11:05.548Z,22.77
2018-12-05T20:13:36.621Z,25.57
2018-12-05T20:16:05.802Z,24.57
2018-12-05T20:18:34.909Z,24.30
2018-12-05T20:21:04.081Z,23.37
2018-12-05T20:23:33.207Z,23.73
2018-12-05T20:26:02.301Z,24.23
2018-12-05T20:28:31.385Z,24.03
2018-12-05T20:31:00.465Z,25.70
2018-12-05T20:33:29.530Z,23.33
2018-12-05T20:35:58.625Z,24.43
2018-12-05T20:38:27.727Z,24.30
2018-12-05T20:40:56.814Z,23.50
2018-12-05T20:43:25.915Z,23.63
2018-12-05T20:45:54.999Z,25.83
2018-12-05T20:48:24.115Z,25.97
2018-12-05T20:50:53.391Z,23.97
2018-12-05T20:53:22.497Z,25.30
2018-12-05T20:55:51.605Z,24.77
2018-12-05T20:58:20.698Z,24.63
2018-12-05T21:00:49.785Z,25.80
2018-12-05T21:03:18.908Z,23.80
2018-12-05T21:05:48.067Z,24.50
2018-12-05T21:08:17.217Z,24.20
2018-12-05T21:10:46.357Z,24.17
2018-12-05T21:13:15.497Z,24.87
2018-12-05T21:15:44.595Z,24.00
2018-12-05T21:18:13.859Z,23.83
2018-12-05T21:20:43.007Z,23.57
2018-12-05T21:23:12.101Z,22.80
2018-12-05T21:25:41.182Z,21.87
2018-12-05T21:28:10.321Z,21.87
2018-12-05T21:30:39.459Z,21.70
2018-12-05T21:33:08.659Z,23.53
2018-12-05T21:35:38.371Z,21.90
2018-12-05T21:38:07.452Z,23.23
2018-12-05T21:40:36.609Z,21.80
2018-12-05T21:43:05.695Z,21.53
2018-12-05T21:45:34.803Z,21.37
2018-12-05T21:48:03.928Z,20.27
2018-12-05T21:50:33.008Z,20.77
2018-12-05T21:53:02.089Z,19.23
2018-12-05T21:55:31.169Z,19.03
2018-12-05T21:58:00.304Z,19.23
2018-12-05T22:00:29.387Z,20.20
2018-12-05T22:02:58.479Z,19.80
2018-12-05T22:05:27.602Z,20.13
2018-12-05T22:07:56.719Z,20.63
2018-12-05T22:10:25.807Z,21.10
2018-12-05T22:12:54.891Z,20.80
2018-12-05T22:15:23.995Z,20.60
2018-12-05T22:17:53.073Z,19.60
2018-12-05T22:20:22.521Z,18.63
2018-12-05T22:22:51.605Z,17.77
2018-12-05T22:25:20.726Z,18.23
2018-12-05T22:27:49.821Z,17.83
2018-12-05T22:30:18.979Z,17.80
2018-12-05T22:32:48.068Z,17.13
2018-12-05T22:35:17.157Z,17.17
2018-12-05T22:37:46.266Z,18.27
2018-12-05T22:40:15.367Z,17.27
2018-12-05T22:42:44.559Z,18.30
2018-12-05T22:45:13.669Z,18.90
2018-12-05T22:47:42.763Z,18.10
2018-12-05T22:50:11.885Z,16.50
2018-12-05T22:52:41.021Z,17.00
2018-12-05T22:55:10.245Z,16.20
2018-12-05T22:57:39.327Z,17.20
2018-12-05T23:00:15.983Z,16.57
2018-12-05T23:02:45.239Z,16.23
2018-12-05T23:05:14.320Z,16.40
2018-12-05T23:07:43.547Z,16.67
2018-12-05T23:10:12.914Z,16.37
2018-12-05T23:12:42.051Z,17.63
2018-12-05T23:15:11.191Z,16.37
2018-12-05T23:17:40.287Z,15.23
2018-12-05T23:20:09.543Z,16.80
2018-12-05T23:22:38.824Z,19.10
2018-12-05T23:25:07.925Z,16.60
2018-12-05T23:27:36.977Z,17.10
2018-12-05T23:30:06.677Z,17.23
2018-12-05T23:32:35.812Z,16.90
2018-12-05T23:35:05.337Z,17.07
2018-12-05T23:37:34.530Z,18.10
2018-12-05T23:40:03.756Z,16.70
2018-12-05T23:42:32.957Z,18.43
2018-12-05T23:45:02.035Z,17.77
2018-12-05T23:47:31.407Z,17.50
2018-12-05T23:50:00.482Z,18.43
2018-12-05T23:52:29.590Z,16.77
2018-12-05T23:54:58.711Z,16.20
2018-12-05T23:57:27.913Z,16.90
2018-12-05T23:59:56.992Z,18.03
